Time;durP1;ratioP1;P1;durP2;ratioP2;P2;SDS_P1;SDS_P2;PMS_P1;PMS_P2;Temp;Humidity;BMP_temperature;BMP_pressure;BME280_temperature;BME280_humidity;BME280_pressure;Samples;Min_cycle;Max_cycle;Signal;HPM_P1;HPM_P2
2021/10/28 00:13:44;;;;;;;9.38;3.33;;;;;;;;;;4916891;29;20160;-39
2021/10/28 00:16:21;;;;;;;4.03;3.25;;;;;;;;;;4917274;29;20026;-37
2021/10/28 00:18:49;;;;;;;4.30;3.08;;;;;;;;;;4916744;29;20166;-38
2021/10/28 00:21:15;;;;;;;5.97;3.58;;;;;;;;;;4917133;29;20635;-37
2021/10/28 00:23:47;;;;;;;7.72;4.10;;;;;;;;;;4915468;29;20224;-37
2021/10/28 00:26:13;;;;;;;5.32;3.00;;;;;;;;;;4916698;29;20507;-37
2021/10/28 00:28:39;;;;;;;5.40;3.10;;;;;;;;;;4916665;29;20535;-37
2021/10/28 00:31:07;;;;;;;5.63;2.85;;;;;;;;;;4916600;29;20036;-37
2021/10/28 00:33:34;;;;;;;4.65;2.90;;;;;;;;;;4916279;29;20059;-37
2021/10/28 00:36:04;;;;;;;6.90;3.65;;;;;;;;;;4916546;29;20039;-37
2021/10/28 00:38:32;;;;;;;4.43;3.00;;;;;;;;;;4916491;29;20088;-37
2021/10/28 00:40:58;;;;;;;4.68;3.28;;;;;;;;;;4916649;29;20380;-37
2021/10/28 00:43:24;;;;;;;4.63;3.42;;;;;;;;;;4916345;29;20036;-37
2021/10/28 00:45:53;;;;;;;4.88;3.10;;;;;;;;;;4916532;29;20043;-38
2021/10/28 00:48:19;;;;;;;8.05;3.90;;;;;;;;;;4916328;29;20036;-37
2021/10/28 00:50:46;;;;;;;7.60;3.63;;;;;;;;;;4916491;29;20032;-37
2021/10/28 00:53:11;;;;;;;3.45;2.50;;;;;;;;;;4916195;29;20024;-37
2021/10/28 00:55:38;;;;;;;5.82;3.22;;;;;;;;;;4916377;29;20036;-37
2021/10/28 00:58:03;;;;;;;4.35;3.20;;;;;;;;;;4930794;29;20028;-37
2021/10/28 01:00:29;;;;;;;10.20;3.60;;;;;;;;;;4915527;29;20043;-37
2021/10/28 01:02:54;;;;;;;3.65;2.70;;;;;;;;;;4916150;29;20554;-38
2021/10/28 01:05:20;;;;;;;3.83;2.88;;;;;;;;;;4916071;29;20514;-37
2021/10/28 01:07:45;;;;;;;5.25;3.22;;;;;;;;;;4898883;29;20636;-37
2021/10/28 01:10:11;;;;;;;5.32;3.17;;;;;;;;;;4916295;29;20052;-37
2021/10/28 01:12:37;;;;;;;7.65;3.60;;;;;;;;;;4915751;29;20028;-37
2021/10/28 01:15:10;;;;;;;7.43;3.90;;;;;;;;;;4915881;29;20361;-37
2021/10/28 01:17:35;;;;;;;;;;;;;;;;;;4916101;29;20133;-37
2021/10/28 01:20:00;;;;;;;3.10;2.72;;;;;;;;;;4916045;29;19915;-37
2021/10/28 01:22:26;;;;;;;5.40;3.47;;;;;;;;;;4915702;29;20031;-37
2021/10/28 01:24:51;;;;;;;5.00;3.13;;;;;;;;;;4915636;29;20515;-37
2021/10/28 01:27:17;;;;;;;5.43;3.28;;;;;;;;;;4915735;29;20365;-37
2021/10/28 01:29:43;;;;;;;5.65;2.90;;;;;;;;;;4915603;29;20028;-37
2021/10/28 01:32:11;;;;;;;5.70;3.53;;;;;;;;;;4915577;29;20488;-37
2021/10/28 01:34:41;;;;;;;4.47;2.90;;;;;;;;;;4915488;29;20415;-37
2021/10/28 01:37:07;;;;;;;7.15;3.00;;;;;;;;;;4915423;29;20047;-37
2021/10/28 01:39:32;;;;;;;4.90;3.13;;;;;;;;;;4915496;29;20036;-37
2021/10/28 01:41:58;;;;;;;5.55;3.13;;;;;;;;;;4915444;29;20036;-37
2021/10/28 01:44:27;;;;;;;8.48;3.88;;;;;;;;;;4915263;29;20042;-37
2021/10/28 01:46:53;;;;;;;4.45;3.47;;;;;;;;;;4915247;29;20115;-37
2021/10/28 01:49:26;;;;;;;4.18;3.28;;;;;;;;;;4915357;29;20053;-37
2021/10/28 01:51:53;;;;;;;6.50;2.63;;;;;;;;;;4915156;29;20074;-37
2021/10/28 01:54:19;;;;;;;5.68;3.30;;;;;;;;;;4915231;29;20052;-37
2021/10/28 01:56:45;;;;;;;15.73;4.60;;;;;;;;;;4915175;29;20087;-38
2021/10/28 01:59:10;;;;;;;9.20;3.58;;;;;;;;;;4915484;29;20028;-37
2021/10/28 02:01:36;;;;;;;8.52;3.78;;;;;;;;;;4915122;29;20040;-37
2021/10/28 02:04:02;;;;;;;4.25;2.78;;;;;;;;;;4915069;29;20036;-37
2021/10/28 02:06:28;;;;;;;5.25;3.72;;;;;;;;;;4915097;29;20025;-37
2021/10/28 02:08:54;;;;;;;4.72;3.30;;;;;;;;;;4915039;29;20027;-37
2021/10/28 02:11:21;;;;;;;5.60;3.08;;;;;;;;;;4914792;29;20387;-37
2021/10/28 02:13:46;;;;;;;6.43;3.35;;;;;;;;;;4914925;29;20059;-37
2021/10/28 02:16:13;;;;;;;4.60;3.72;;;;;;;;;;4915362;29;20498;-37
2021/10/28 02:18:38;;;;;;;5.88;2.95;;;;;;;;;;4914728;29;20152;-37
2021/10/28 02:21:04;;;;;;;3.17;2.63;;;;;;;;;;4914971;29;20040;-38
2021/10/28 02:23:29;;;;;;;5.30;3.13;;;;;;;;;;4914962;29;20039;-37
2021/10/28 02:25:55;;;;;;;4.72;3.47;;;;;;;;;;4914782;29;20115;-37
2021/10/28 02:28:20;;;;;;;9.63;3.63;;;;;;;;;;4915008;29;20020;-37
2021/10/28 02:30:46;;;;;;;3.42;2.88;;;;;;;;;;4914800;29;20032;-37
2021/10/28 02:33:12;;;;;;;7.70;3.97;;;;;;;;;;4914906;29;20047;-37
2021/10/28 02:35:37;;;;;;;8.15;3.72;;;;;;;;;;4914061;29;20036;-37
2021/10/28 02:38:03;;;;;;;8.80;3.25;;;;;;;;;;4914247;29;20399;-37
2021/10/28 02:40:31;;;;;;;6.45;3.35;;;;;;;;;;4914293;29;20036;-37
2021/10/28 02:42:56;;;;;;;5.63;3.35;;;;;;;;;;4914061;29;20368;-37
2021/10/28 02:45:22;;;;;;;6.00;3.45;;;;;;;;;;4914208;29;20103;-37
2021/10/28 02:47:47;;;;;;;8.10;3.38;;;;;;;;;;4913830;29;20496;-37
2021/10/28 02:50:13;;;;;;;5.65;3.35;;;;;;;;;;4914215;29;20626;-37
2021/10/28 02:52:41;;;;;;;10.55;3.72;;;;;;;;;;4914111;29;20036;-37
2021/10/28 02:55:06;;;;;;;6.07;3.75;;;;;;;;;;4914045;29;20055;-37
2021/10/28 02:57:32;;;;;;;7.20;3.80;;;;;;;;;;4913770;29;20075;-38
2021/10/28 02:59:57;;;;;;;11.60;3.65;;;;;;;;;;4913956;29;20084;-37
2021/10/28 03:02:24;;;;;;;6.28;3.85;;;;;;;;;;4912315;29;20399;-37
2021/10/28 03:04:49;;;;;;;6.47;3.75;;;;;;;;;;4913698;29;20428;-37
2021/10/28 03:07:14;;;;;;;6.30;3.83;;;;;;;;;;4913697;29;20087;-37
2021/10/28 03:09:40;;;;;;;9.70;4.25;;;;;;;;;;4913570;29;20029;-37
2021/10/28 03:12:07;;;;;;;6.45;3.25;;;;;;;;;;4913673;29;20017;-37
2021/10/28 03:14:38;;;;;;;8.35;3.53;;;;;;;;;;4913879;29;20396;-37
2021/10/28 03:27:46;;;;;;;6.80;3.45;;;;;;;;;;4916589;29;20068;-37
2021/10/28 03:30:11;;;;;;;8.15;4.10;;;;;;;;;;4916598;29;20016;-37
2021/10/28 03:32:37;;;;;;;10.27;4.18;;;;;;;;;;4916491;29;20038;-37
2021/10/28 03:35:06;;;;;;;5.22;3.65;;;;;;;;;;4875276;29;1239512;-38
2021/10/28 03:43:30;;;;;;;10.38;3.88;;;;;;;;;;4917400;29;20042;-37
2021/10/28 04:08:57;;;;;;;11.20;3.08;;;;;;;;;;4917034;29;20024;-37
2021/10/28 04:30:26;;;;;;;7.22;3.97;;;;;;;;;;4908559;29;20051;-37
2021/10/28 04:32:52;;;;;;;8.00;4.05;;;;;;;;;;4916588;29;20117;-37
2021/10/28 04:35:18;;;;;;;8.20;3.75;;;;;;;;;;4915500;29;20055;-37
2021/10/28 04:37:45;;;;;;;6.47;3.92;;;;;;;;;;4915594;29;20032;-37
2021/10/28 04:40:11;;;;;;;7.13;3.63;;;;;;;;;;4916541;29;20576;-37
2021/10/28 04:42:36;;;;;;;6.70;4.07;;;;;;;;;;4916298;29;20016;-37
2021/10/28 04:45:03;;;;;;;4.97;3.58;;;;;;;;;;4916441;29;20491;-38
2021/10/28 04:47:28;;;;;;;5.43;3.03;;;;;;;;;;4916587;29;20500;-37
2021/10/28 04:49:54;;;;;;;5.75;3.25;;;;;;;;;;4916528;29;20050;-37
2021/10/28 04:52:21;;;;;;;7.15;3.70;;;;;;;;;;4916265;29;20021;-38
2021/10/28 04:54:47;;;;;;;11.02;3.60;;;;;;;;;;4930850;29;20386;-37
2021/10/28 04:57:12;;;;;;;7.95;4.00;;;;;;;;;;4916212;29;20028;-37
2021/10/28 04:59:38;;;;;;;7.47;2.90;;;;;;;;;;4916376;29;20067;-37
2021/10/28 05:02:04;;;;;;;8.25;4.18;;;;;;;;;;4916063;29;20027;-37
2021/10/28 05:04:29;;;;;;;7.47;3.63;;;;;;;;;;4915918;29;20046;-37
2021/10/28 05:06:55;;;;;;;5.80;3.75;;;;;;;;;;4916228;29;20041;-37
2021/10/28 05:09:30;;;;;;;7.13;3.60;;;;;;;;;;4916022;29;20071;-37
2021/10/28 05:11:56;;;;;;;7.20;3.53;;;;;;;;;;4915781;29;20028;-37
2021/10/28 05:14:22;;;;;;;6.35;3.72;;;;;;;;;;4915984;29;20072;-37
2021/10/28 05:16:48;;;;;;;9.15;3.85;;;;;;;;;;4915610;29;20039;-37
2021/10/28 05:19:13;;;;;;;6.00;3.58;;;;;;;;;;4915824;29;20032;-37
2021/10/28 05:21:39;;;;;;;7.47;4.28;;;;;;;;;;4915612;29;20043;-37
2021/10/28 05:24:04;;;;;;;5.75;4.00;;;;;;;;;;4915585;29;20039;-38
2021/10/28 05:26:30;;;;;;;6.63;3.67;;;;;;;;;;4915747;29;20028;-41
2021/10/28 05:28:55;;;;;;;6.22;3.63;;;;;;;;;;4915621;29;20442;-37
2021/10/28 05:31:22;;;;;;;5.22;3.50;;;;;;;;;;4915540;29;20088;-37
2021/10/28 05:33:48;;;;;;;11.43;4.95;;;;;;;;;;4915364;29;20044;-37
2021/10/28 05:36:13;;;;;;;3.42;2.25;;;;;;;;;;4915604;29;20056;-37
2021/10/28 05:38:39;;;;;;;8.68;3.60;;;;;;;;;;4915644;29;20143;-37
2021/10/28 05:41:04;;;;;;;10.65;3.38;;;;;;;;;;4915422;29;20032;-37
2021/10/28 05:43:30;;;;;;;7.53;4.22;;;;;;;;;;4914083;29;20107;-37
2021/10/28 05:45:56;;;;;;;6.25;4.38;;;;;;;;;;4915125;29;20028;-38
2021/10/28 05:48:21;;;;;;;7.93;4.22;;;;;;;;;;4915367;29;20056;-37
2021/10/28 05:50:47;;;;;;;6.30;3.90;;;;;;;;;;4915322;29;20028;-37
2021/10/28 05:53:13;;;;;;;7.93;4.10;;;;;;;;;;4913913;29;20076;-37
2021/10/28 05:55:39;;;;;;;7.15;4.15;;;;;;;;;;4915388;29;20028;-37
2021/10/28 05:58:04;;;;;;;8.32;3.83;;;;;;;;;;4915475;29;20452;-37
2021/10/28 06:00:30;;;;;;;7.60;4.03;;;;;;;;;;4915122;29;20020;-37
2021/10/28 06:02:55;;;;;;;9.90;4.95;;;;;;;;;;4914997;29;20043;-37
2021/10/28 06:05:21;;;;;;;6.35;4.10;;;;;;;;;;4915212;29;20024;-37
2021/10/28 06:07:47;;;;;;;7.55;4.60;;;;;;;;;;4914958;29;20379;-37
2021/10/28 06:10:16;;;;;;;8.35;4.70;;;;;;;;;;4915383;29;20032;-37
2021/10/28 06:12:47;;;;;;;5.75;3.88;;;;;;;;;;4915186;29;20031;-37
2021/10/28 06:15:14;;;;;;;6.95;3.97;;;;;;;;;;4915104;29;20083;-37
2021/10/28 06:20:31;;;;;;;6.68;4.72;;;;;;;;;;4913985;29;20044;-37
2021/10/28 06:22:57;;;;;;;7.93;5.55;;;;;;;;;;4914692;29;20087;-37
2021/10/28 06:25:22;;;;;;;8.30;4.75;;;;;;;;;;4915045;29;20128;-37
2021/10/28 06:27:48;;;;;;;8.98;4.22;;;;;;;;;;4914860;29;20031;-36
2021/10/28 06:30:14;;;;;;;6.90;4.97;;;;;;;;;;4914953;29;20033;-37
2021/10/28 06:32:44;;;;;;;9.57;4.15;;;;;;;;;;4914880;29;20032;-37
2021/10/28 06:35:09;;;;;;;6.18;3.83;;;;;;;;;;4914710;29;20040;-41
2021/10/28 06:37:35;;;;;;;8.18;4.25;;;;;;;;;;4914937;29;20503;-37
2021/10/28 06:40:01;;;;;;;10.23;5.38;;;;;;;;;;4914761;29;20036;-37
2021/10/28 06:42:26;;;;;;;10.50;4.82;;;;;;;;;;4914715;29;20016;-37
2021/10/28 06:44:52;;;;;;;7.35;4.55;;;;;;;;;;4914744;29;20036;-37
2021/10/28 06:47:17;;;;;;;8.02;5.25;;;;;;;;;;4914756;29;20023;-37
2021/10/28 06:49:43;;;;;;;6.93;4.25;;;;;;;;;;4914677;29;20040;-37
2021/10/28 06:52:12;;;;;;;9.02;4.95;;;;;;;;;;4914661;29;20024;-37
2021/10/28 06:54:39;;;;;;;5.35;3.05;;;;;;;;;;4914604;29;20096;-37
2021/10/28 07:02:45;;;;;;;3.58;2.67;;;;;;;;;;4918463;29;20583;-37
2021/10/28 07:05:12;;;;;;;7.35;4.57;;;;;;;;;;4918432;29;20164;-37
2021/10/28 07:07:37;;;;;;;10.07;5.30;;;;;;;;;;4918356;29;20024;-37
2021/10/28 07:10:08;;;;;;;7.47;4.20;;;;;;;;;;4918451;29;20542;-37
2021/10/28 07:12:42;;;;;;;6.47;4.00;;;;;;;;;;4918055;29;20035;-37
2021/10/28 07:15:30;;;;;;;9.68;4.72;;;;;;;;;;4918126;29;20164;-37
2021/10/28 07:18:14;;;;;;;14.23;5.30;;;;;;;;;;4918002;29;20028;-37
2021/10/28 07:23:18;;;;;;;10.70;5.18;;;;;;;;;;4917780;29;20527;-37
2021/10/28 08:21:36;;;;;;;8.02;4.90;;;;;;;;;;4916843;29;20558;-37
2021/10/28 08:29:33;;;;;;;9.43;5.68;;;;;;;;;;4917007;29;20399;-37
2021/10/28 08:31:59;;;;;;;6.25;4.40;;;;;;;;;;4916501;29;20012;-38
2021/10/28 08:34:32;;;;;;;10.02;4.90;;;;;;;;;;4916536;29;20051;-37
2021/10/28 08:37:11;;;;;;;6.20;3.85;;;;;;;;;;4916685;29;20036;-37
2021/10/28 08:39:38;;;;;;;8.95;5.35;;;;;;;;;;4916614;29;20028;-37
2021/10/28 08:42:08;;;;;;;7.75;5.25;;;;;;;;;;4916285;29;20032;-37
2021/10/28 08:44:39;;;;;;;6.88;4.55;;;;;;;;;;4916351;29;20052;-37
2021/10/28 08:47:04;;;;;;;6.95;4.30;;;;;;;;;;4916438;29;20103;-37
2021/10/28 08:49:41;;;;;;;7.20;4.85;;;;;;;;;;4916665;29;20213;-37
2021/10/28 08:59:55;;;;;;;9.57;3.90;;;;;;;;;;4916388;29;20111;-37
2021/10/28 09:24:42;;;;;;;7.15;3.97;;;;;;;;;;4915717;29;20044;-37
2021/10/28 09:27:12;;;;;;;10.77;4.82;;;;;;;;;;4915603;29;20043;-37
2021/10/28 09:29:48;;;;;;;9.73;4.50;;;;;;;;;;4915810;29;20031;-37
2021/10/28 09:32:38;;;;;;;11.55;5.53;;;;;;;;;;4915610;29;20056;-37
2021/10/28 09:44:04;;;;;;;7.47;4.40;;;;;;;;;;4915617;29;20051;-37
2021/10/28 09:51:32;;;;;;;10.88;4.25;;;;;;;;;;4915566;29;20040;-37
2021/10/28 09:59:30;;;;;;;7.63;3.70;;;;;;;;;;4915536;29;20036;-37
2021/10/28 10:02:15;;;;;;;9.07;4.15;;;;;;;;;;4915072;29;20024;-37
2021/10/28 10:04:43;;;;;;;5.60;3.90;;;;;;;;;;4915216;29;20407;-38
2021/10/28 10:07:10;;;;;;;5.53;3.58;;;;;;;;;;4914048;29;20024;-37
2021/10/28 10:09:37;;;;;;;7.88;4.43;;;;;;;;;;4915016;29;20538;-37
2021/10/28 10:12:03;;;;;;;6.80;3.22;;;;;;;;;;4914993;29;20020;-37
2021/10/28 10:14:29;;;;;;;5.88;3.25;;;;;;;;;;4915142;29;20092;-37
2021/10/28 10:16:54;;;;;;;6.38;3.67;;;;;;;;;;4914889;29;20032;-37
2021/10/28 10:19:28;;;;;;;6.15;3.85;;;;;;;;;;4915123;29;20043;-37
2021/10/28 10:21:54;;;;;;;6.63;3.80;;;;;;;;;;4914842;29;20039;-37
2021/10/28 10:25:17;;;;;;;8.82;4.10;;;;;;;;;;4913724;29;20040;-37
2021/10/28 11:03:10;;;;;;;5.95;2.90;;;;;;;;;;4918699;29;20583;-37
2021/10/28 12:14:40;;;;;;;4.55;3.13;;;;;;;;;;4916243;29;20115;-37
2021/10/28 13:55:14;;;;;;;5.35;3.25;;;;;;;;;;4915592;29;20120;-37
2021/10/28 14:27:14;;;;;;;5.88;3.83;;;;;;;;;;4914968;29;20024;-37
2021/10/28 15:29:26;;;;;;;8.63;4.07;;;;;;;;;;4917713;29;20503;-38
2021/10/28 15:34:52;;;;;;;6.87;4.17;;;;;;;;;;4917595;29;20048;-37
2021/10/28 15:40:21;;;;;;;4.65;2.97;;;;;;;;;;4917609;29;19947;-37
2021/10/28 15:53:16;;;;;;;8.65;5.20;;;;;;;;;;4917657;29;20024;-37
2021/10/28 15:56:29;;;;;;;5.57;3.97;;;;;;;;;;4917684;29;20364;-37
2021/10/28 15:59:14;;;;;;;6.63;3.72;;;;;;;;;;4912014;29;20574;-37
2021/10/28 16:21:47;;;;;;;11.13;3.90;;;;;;;;;;4917162;29;20047;-37
2021/10/28 16:23:39;;;;;;;9.90;5.18;;;;;;;;;;4916984;29;20080;-38
2021/10/28 16:26:04;;;;;;;9.15;5.32;;;;;;;;;;4916638;29;20032;-37
2021/10/28 16:28:31;;;;;;;9.30;5.43;;;;;;;;;;4916871;29;20061;-38
2021/10/28 16:30:57;;;;;;;9.82;5.97;;;;;;;;;;4915484;29;20029;-37
2021/10/28 16:33:23;;;;;;;9.00;5.38;;;;;;;;;;4916538;29;20031;-37
2021/10/28 16:35:49;;;;;;;5.45;4.25;;;;;;;;;;4916783;29;20036;-37
2021/10/28 16:38:16;;;;;;;10.93;5.28;;;;;;;;;;4916693;29;20036;-37
2021/10/28 16:40:41;;;;;;;8.32;5.47;;;;;;;;;;4916526;29;20064;-37
2021/10/28 16:43:07;;;;;;;8.30;5.07;;;;;;;;;;4916305;29;20040;-38
2021/10/28 16:45:33;;;;;;;8.63;4.82;;;;;;;;;;4916524;29;20024;-39
2021/10/28 16:47:59;;;;;;;11.15;5.72;;;;;;;;;;4916398;29;20472;-37
2021/10/28 16:50:25;;;;;;;12.18;5.55;;;;;;;;;;4916399;29;20035;-37
2021/10/28 16:52:51;;;;;;;7.47;5.40;;;;;;;;;;4916265;29;20539;-37
2021/10/28 16:55:16;;;;;;;9.25;5.07;;;;;;;;;;4916234;29;20123;-37
2021/10/28 16:57:44;;;;;;;6.88;4.30;;;;;;;;;;4916301;29;20038;-37
2021/10/28 17:00:10;;;;;;;9.20;5.40;;;;;;;;;;4916247;29;20446;-37
2021/10/28 17:02:35;;;;;;;11.95;5.30;;;;;;;;;;4916112;29;20084;-37
2021/10/28 17:05:01;;;;;;;11.07;5.88;;;;;;;;;;4916113;29;20032;-37
2021/10/28 17:07:27;;;;;;;14.40;7.00;;;;;;;;;;4916138;29;20032;-37
2021/10/28 17:09:52;;;;;;;8.10;4.90;;;;;;;;;;4915942;29;20024;-37
2021/10/28 17:12:19;;;;;;;9.98;5.35;;;;;;;;;;4915967;29;20115;-37
2021/10/28 17:14:44;;;;;;;8.52;5.97;;;;;;;;;;4915961;29;20474;-38
2021/10/28 17:17:11;;;;;;;8.73;5.70;;;;;;;;;;4915797;29;20039;-37
2021/10/28 17:19:36;;;;;;;7.43;5.57;;;;;;;;;;4915919;29;20016;-37
2021/10/28 17:22:03;;;;;;;13.52;5.65;;;;;;;;;;4915619;29;20032;-37
2021/10/28 17:24:44;;;;;;;7.28;5.07;;;;;;;;;;4915881;29;20507;-37
2021/10/28 17:27:12;;;;;;;10.43;5.78;;;;;;;;;;4915794;29;20112;-37
2021/10/28 17:29:39;;;;;;;9.27;6.55;;;;;;;;;;4915643;29;20028;-37
2021/10/28 17:32:05;;;;;;;12.63;7.10;;;;;;;;;;4915523;29;20036;-38
2021/10/28 17:34:33;;;;;;;12.60;6.07;;;;;;;;;;4915537;29;20396;-37
2021/10/28 17:36:59;;;;;;;15.18;6.50;;;;;;;;;;4915472;29;20498;-37
2021/10/28 17:39:27;;;;;;;11.98;5.60;;;;;;;;;;4915728;29;20024;-37
2021/10/28 17:41:53;;;;;;;10.00;6.63;;;;;;;;;;4915110;29;20032;-37
2021/10/28 17:44:21;;;;;;;12.50;6.57;;;;;;;;;;4915606;29;20036;-37
2021/10/28 17:46:47;;;;;;;11.93;6.75;;;;;;;;;;4915799;29;20432;-37
2021/10/28 17:49:13;;;;;;;15.13;7.82;;;;;;;;;;4915360;29;20020;-37
2021/10/28 17:51:38;;;;;;;14.60;6.95;;;;;;;;;;4915243;29;20063;-37
2021/10/28 17:54:09;;;;;;;12.10;6.47;;;;;;;;;;4915264;29;20028;-37
2021/10/28 17:56:36;;;;;;;10.63;6.25;;;;;;;;;;4915627;29;20036;-38
2021/10/28 17:59:04;;;;;;;15.88;8.15;;;;;;;;;;4915271;29;20380;-37
2021/10/28 18:01:30;;;;;;;13.32;7.82;;;;;;;;;;4915441;29;20028;-37
2021/10/28 18:03:59;;;;;;;12.35;7.07;;;;;;;;;;4915396;29;20133;-37
2021/10/28 18:06:24;;;;;;;18.80;8.57;;;;;;;;;;4915170;29;20120;-37
2021/10/28 18:08:50;;;;;;;11.90;6.93;;;;;;;;;;4915158;29;20538;-37
2021/10/28 18:11:16;;;;;;;12.30;7.00;;;;;;;;;;4915171;29;20036;-37
2021/10/28 18:13:41;;;;;;;12.85;7.75;;;;;;;;;;4915148;29;20020;-37
2021/10/28 18:16:07;;;;;;;16.55;8.93;;;;;;;;;;4915014;29;20384;-37
2021/10/28 18:18:37;;;;;;;13.55;7.82;;;;;;;;;;4915405;29;20345;-37
2021/10/28 18:21:03;;;;;;;16.20;9.40;;;;;;;;;;4913669;29;20032;-37
2021/10/28 18:23:30;;;;;;;14.85;10.07;;;;;;;;;;4915006;29;20076;-37
2021/10/28 18:25:56;;;;;;;17.05;8.10;;;;;;;;;;4914966;29;20103;-37
2021/10/28 18:28:23;;;;;;;17.75;8.82;;;;;;;;;;4915299;29;20060;-37
2021/10/28 18:30:49;;;;;;;17.77;9.52;;;;;;;;;;4913637;29;20391;-40
2021/10/28 18:33:14;;;;;;;15.50;7.28;;;;;;;;;;4914641;29;20020;-37
2021/10/28 18:35:41;;;;;;;20.20;9.30;;;;;;;;;;4914981;29;20056;-37
2021/10/28 18:38:09;;;;;;;21.85;9.07;;;;;;;;;;4914732;29;20039;-37
2021/10/28 18:40:35;;;;;;;13.13;8.43;;;;;;;;;;4914821;29;20040;-37
2021/10/28 18:43:01;;;;;;;13.60;8.85;;;;;;;;;;4914604;29;20024;-37
2021/10/28 18:45:27;;;;;;;20.00;8.90;;;;;;;;;;4914840;29;20051;-37
2021/10/28 18:47:53;;;;;;;15.27;9.75;;;;;;;;;;4914961;29;20107;-37
2021/10/28 18:50:20;;;;;;;18.63;9.88;;;;;;;;;;4914716;29;20028;-37
2021/10/28 18:52:45;;;;;;;18.67;9.18;;;;;;;;;;4914757;29;20028;-37
2021/10/28 18:55:11;;;;;;;17.52;10.75;;;;;;;;;;4916842;29;20039;-37
2021/10/28 18:57:36;;;;;;;16.05;9.70;;;;;;;;;;4918655;29;20063;-37
2021/10/28 19:00:03;;;;;;;18.48;9.32;;;;;;;;;;4918340;29;20511;-37
2021/10/28 19:02:29;;;;;;;17.30;10.50;;;;;;;;;;4918373;29;20027;-37
2021/10/28 19:04:55;;;;;;;16.00;9.73;;;;;;;;;;4918097;29;20048;-37
2021/10/28 19:07:21;;;;;;;20.88;11.05;;;;;;;;;;4918381;29;20020;-37
2021/10/28 19:09:47;;;;;;;15.10;8.95;;;;;;;;;;4918126;29;20036;-37
2021/10/28 19:12:12;;;;;;;16.98;8.90;;;;;;;;;;4918078;29;20020;-37
2021/10/28 19:14:42;;;;;;;16.48;7.53;;;;;;;;;;4918030;29;20449;-37
2021/10/28 19:17:09;;;;;;;16.80;10.75;;;;;;;;;;4918029;29;20103;-37
2021/10/28 19:19:34;;;;;;;18.85;10.93;;;;;;;;;;4918169;29;20140;-37
2021/10/28 19:22:03;;;;;;;15.68;9.45;;;;;;;;;;4917888;29;20132;-37
2021/10/28 19:24:29;;;;;;;25.67;11.00;;;;;;;;;;4917819;29;20755;-37
2021/10/28 19:26:54;;;;;;;17.02;10.82;;;;;;;;;;4917832;29;20530;-37
2021/10/28 19:29:21;;;;;;;18.75;10.63;;;;;;;;;;4917913;29;20399;-37
2021/10/28 19:32:08;;;;;;;16.98;10.27;;;;;;;;;;4917739;29;20024;-37
2021/10/28 19:34:40;;;;;;;19.08;10.50;;;;;;;;;;4917742;29;20527;-37
2021/10/28 20:14:36;;;;;;;23.80;12.15;;;;;;;;;;4917112;29;20032;-37
2021/10/28 20:22:00;;;;;;;19.88;11.70;;;;;;;;;;4917030;29;20063;-37
2021/10/28 20:24:25;;;;;;;16.48;9.18;;;;;;;;;;4917080;29;20028;-37
2021/10/28 21:01:43;;;;;;;26.30;12.23;;;;;;;;;;4915814;29;20054;-37
2021/10/28 21:04:08;;;;;;;17.58;12.00;;;;;;;;;;4916035;29;20127;-37
2021/10/28 21:06:35;;;;;;;24.08;12.07;;;;;;;;;;4916145;29;20020;-37
2021/10/28 21:09:01;;;;;;;21.30;11.60;;;;;;;;;;4914870;29;20088;-37
2021/10/28 21:11:26;;;;;;;21.00;11.20;;;;;;;;;;4916016;29;20419;-37
2021/10/28 21:13:52;;;;;;;24.35;13.73;;;;;;;;;;4916024;29;20379;-37
2021/10/28 21:16:18;;;;;;;20.52;11.13;;;;;;;;;;4915796;29;20063;-37
2021/10/28 21:18:44;;;;;;;18.90;11.25;;;;;;;;;;4915489;29;20048;-37
2021/10/28 21:21:10;;;;;;;21.38;11.60;;;;;;;;;;4916081;29;20031;-37
2021/10/28 21:23:35;;;;;;;27.48;13.15;;;;;;;;;;4914617;29;20043;-38
2021/10/28 21:26:01;;;;;;;26.85;12.65;;;;;;;;;;4915686;29;20020;-37
2021/10/28 21:28:26;;;;;;;22.73;12.13;;;;;;;;;;4916155;29;20040;-37
2021/10/28 21:30:52;;;;;;;23.55;11.18;;;;;;;;;;4915692;29;20810;-37
2021/10/28 21:33:17;;;;;;;27.30;12.48;;;;;;;;;;4915875;29;20584;-37
2021/10/28 21:35:43;;;;;;;21.15;11.27;;;;;;;;;;4915729;29;20494;-37
2021/10/28 21:38:09;;;;;;;21.15;11.73;;;;;;;;;;4915453;29;20044;-37
2021/10/28 21:40:34;;;;;;;26.05;10.68;;;;;;;;;;4915800;29;20031;-37
2021/10/28 21:43:00;;;;;;;22.83;12.57;;;;;;;;;;4915537;29;20028;-37
2021/10/28 21:45:26;;;;;;;26.55;13.88;;;;;;;;;;4915439;29;20029;-37
2021/10/28 21:47:52;;;;;;;22.85;11.35;;;;;;;;;;4915532;29;20065;-37
2021/10/28 21:50:19;;;;;;;29.13;13.88;;;;;;;;;;4915333;29;20058;-37
2021/10/28 21:52:52;;;;;;;23.80;13.13;;;;;;;;;;4915521;29;20110;-39
2021/10/28 22:00:30;;;;;;;22.48;12.95;;;;;;;;;;4913913;29;20039;-37
2021/10/28 22:24:42;;;;;;;24.55;12.57;;;;;;;;;;4915044;29;20040;-37
2021/10/28 22:27:08;;;;;;;22.48;11.48;;;;;;;;;;4914921;29;20056;-37
2021/10/28 22:29:34;;;;;;;23.08;12.77;;;;;;;;;;4918052;29;20028;-37
2021/10/28 22:32:01;;;;;;;27.85;14.10;;;;;;;;;;4917504;29;20087;-37
2021/10/28 22:34:26;;;;;;;24.92;14.05;;;;;;;;;;4919202;29;20111;-37
2021/10/28 22:36:55;;;;;;;25.88;12.80;;;;;;;;;;4918894;29;20084;-37
2021/10/28 22:39:33;;;;;;;23.48;12.75;;;;;;;;;;4918994;29;20048;-39
2021/10/28 22:41:59;;;;;;;28.15;14.15;;;;;;;;;;4918654;29;20055;-37
2021/10/28 22:44:25;;;;;;;25.80;13.00;;;;;;;;;;4918596;29;20040;-37
2021/10/28 22:46:50;;;;;;;27.33;12.32;;;;;;;;;;4918679;29;20047;-37
2021/10/28 22:49:16;;;;;;;25.95;12.13;;;;;;;;;;4918552;29;20028;-37
2021/10/28 22:51:41;;;;;;;24.83;11.82;;;;;;;;;;4918559;29;20655;-37
2021/10/28 22:54:08;;;;;;;24.38;13.07;;;;;;;;;;4918546;29;20028;-37
2021/10/28 22:56:33;;;;;;;6.22;4.43;;;;;;;;;;4918496;29;20455;-37
2021/10/28 22:59:03;;;;;;;25.23;11.75;;;;;;;;;;4918377;29;20107;-37
2021/10/28 23:01:53;;;;;;;22.25;11.32;;;;;;;;;;4918146;29;20043;-37
2021/10/28 23:12:15;;;;;;;20.85;11.50;;;;;;;;;;4918202;29;20469;-37
2021/10/28 23:22:51;;;;;;;23.88;12.32;;;;;;;;;;4918071;29;20076;-37
2021/10/28 23:25:17;;;;;;;26.00;12.77;;;;;;;;;;4917858;29;20451;-38
2021/10/28 23:27:43;;;;;;;22.85;11.82;;;;;;;;;;4916703;29;20036;-37
2021/10/28 23:30:09;;;;;;;21.25;11.45;;;;;;;;;;4917758;29;20032;-37
2021/10/28 23:32:34;;;;;;;22.70;11.65;;;;;;;;;;4917909;29;20518;-37
2021/10/28 23:35:00;;;;;;;22.40;12.25;;;;;;;;;;4918013;29;20032;-38
2021/10/28 23:37:25;;;;;;;27.73;12.60;;;;;;;;;;4917750;29;20040;-38
2021/10/28 23:39:51;;;;;;;20.95;11.07;;;;;;;;;;4916995;29;20032;-37
2021/10/28 23:42:16;;;;;;;24.02;11.43;;;;;;;;;;4917605;29;20055;-37
2021/10/28 23:44:42;;;;;;;27.75;13.68;;;;;;;;;;4917647;29;20032;-37
2021/10/28 23:47:07;;;;;;;23.42;12.95;;;;;;;;;;4917511;29;20031;-37
2021/10/28 23:49:32;;;;;;;29.52;12.77;;;;;;;;;;4917589;29;20108;-37
2021/10/28 23:51:58;;;;;;;20.75;11.55;;;;;;;;;;4917745;29;20161;-37
2021/10/28 23:54:23;;;;;;;25.10;11.60;;;;;;;;;;4917687;29;20044;-37
2021/10/28 23:56:49;;;;;;;21.77;12.18;;;;;;;;;;4917489;29;20051;-38
2021/10/28 23:59:14;;;;;;;22.77;11.05;;;;;;;;;;4917436;29;20132;-37
